Foothill RPC :: Elm Creek NE

liberation: 2022-06-24  05:30     latitude: 40.717418     longitude: -99.373296 58 birds
# LOFT PRING MILES ARRIVAL SPEED ToWin
1 PRAIRIE GOLD LOFT AU21-FOYS-1044 280.443 2022-06-24 11:56:07.149 1278.308 00:00:00
2 PRAIRIE GOLD LOFT AU20-ARPU-1931 280.443 2022-06-24 12:25:05.804 1189.071 00:28:59
3 PRAIRIE GOLD LOFT AU20-FH-20880 280.443 2022-06-24 12:42:20.631 1141.636 00:46:13
4 PRAIRIE GOLD LOFT AU17-NOME-806 280.443 2022-06-24 12:55:22.352 1108.239 00:59:15
5 PRAIRIE GOLD LOFT AU21-CRP-537 280.443 2022-06-24 12:55:38.100 1107.587 00:59:31
6 PRAIRIE GOLD LOFT AU20-RI-686 280.443 2022-06-24 13:05:28.600 1083.654 01:09:21
7 PRAIRIE GOLD LOFT AU21-HPDL-100 280.443 2022-06-24 14:12:17.631 945.022 02:16:10
8 PRAIRIE GOLD LOFT AU19-FH-9020 280.443 2022-06-24 14:14:32.486 940.973 02:18:25
9 PRAIRIE GOLD LOFT AU18-FLYI-8243 280.443 2022-06-24 14:15:58.833 938.398 02:19:52
10 PRAIRIE GOLD LOFT AU20-FH-20053 280.443 2022-06-24 14:30:21.854 913.420 02:34:15
11 PRAIRIE GOLD LOFT AU21-FH-21003 280.443 2022-06-24 14:32:37.782 909.606 02:36:31
12 PRAIRIE GOLD LOFT AU18-FH-8092 280.443 2022-06-24 14:33:42.787 907.794 02:37:36
13 PRAIRIE GOLD LOFT AU20-ARPU-66510 280.443 2022-06-24 14:45:10.853 889.042 02:49:04
14 PRAIRIE GOLD LOFT AU21-FH-21039 280.443 2022-06-24 15:08:04.518 853.832 03:11:57
15 PRAIRIE GOLD LOFT AU21-FH-21125 280.443 2022-06-24 15:13:18.728 846.167 03:17:12
16 PRAIRIE GOLD LOFT AU19-FH-9065 280.443 2022-06-24 15:18:42.524 838.410 03:22:35
17 PRAIRIE GOLD LOFT AU20-ARPU-1932 280.443 2022-06-24 15:20:34.942 835.750 03:24:28
18 PRAIRIE GOLD LOFT AU20-ARPU-66602 280.443 2022-06-24 16:08:51.304 772.600 04:12:44
19 PRAIRIE GOLD LOFT AU21-HPDL-5 280.443 2022-06-24 17:03:42.880 711.502 05:07:36
20 PRAIRIE GOLD LOFT AU21-FH-21116 280.443 2022-06-24 17:04:54.502 710.280 05:08:47
21 PRAIRIE GOLD LOFT AU21-FH-21022 280.443 2022-06-24 17:17:40.871 697.460 05:21:34
22 PRAIRIE GOLD LOFT AU21-NOME-6 280.443 2022-06-24 17:49:28.057 667.479 05:53:21
23 PRAIRIE GOLD LOFT AU18-FLYI-8250 280.443 2022-06-24 17:51:54.611 665.282 05:55:47
24 PRAIRIE GOLD LOFT AU19-FH-9056 280.443 2022-06-24 18:14:05.918 645.963 06:17:59
25 PRAIRIE GOLD LOFT AU19-FH-9073 280.443 2022-06-24 18:27:03.583 635.188 06:30:56
26 PRAIRIE GOLD LOFT AU18-NSL-317 280.443 2022-06-24 18:53:19.736 614.417 06:57:13
27 PRAIRIE GOLD LOFT AU18-FH-8007 280.443 2022-06-24 18:54:23.386 613.607 06:58:16
28 PRAIRIE GOLD LOFT AU21-ARPU-72642 280.443 2022-06-24 19:01:20.008 608.356 07:05:13
29 PRAIRIE GOLD LOFT AU20-FH-20061 280.443 2022-06-24 19:11:50.355 600.579 07:15:43
30 PRAIRIE GOLD LOFT AU21-SKI-451 280.443 2022-06-24 19:12:03.026 600.425 07:15:56
31 PRAIRIE GOLD LOFT AU21-FH-21078 280.443 2022-06-24 19:54:29.063 570.952 07:58:22
32 PRAIRIE GOLD LOFT AU21-CRP-536 280.443 2022-06-24 19:59:30.874 567.649 08:03:24
33 KUArrows AU21-FH-21386 287.036 2022-06-25 06:00:16.706 507.529 10:00:11
34 PRAIRIE GOLD LOFT AU21-FH-21016 280.443 2022-06-25 05:53:48.287 499.117 10:02:47
35 PRAIRIE GOLD LOFT AU19-FOYS-5724 280.443 2022-06-25 05:57:48.017 497.109 10:06:47
36 PRAIRIE GOLD LOFT AU21-ARPU-98411 280.443 2022-06-25 06:08:46.919 491.671 10:17:46
37 PRAIRIE GOLD LOFT AU18-FH-8068 280.443 2022-06-25 06:17:40.858 487.351 10:26:40
38 PRAIRIE GOLD LOFT AU19-FLYI-1950 280.443 2022-06-25 06:59:44.904 467.915 11:08:44
KUArrows AU-ARPU-88257 0 0000-00-00 00:00:00.000 0.000 00:00:00
KUArrows AU19-FH-10423 0 0000-00-00 00:00:00.000 0.000 00:00:00
KUArrows AU20-ARPU-88279 0 0000-00-00 00:00:00.000 0.000 00:00:00
KUArrows AU20-ARPU-88285 0 0000-00-00 00:00:00.000 0.000 00:00:00
KUArrows AU21-FH-21182 0 0000-00-00 00:00:00.000 0.000 00:00:00
PRAIRIE GOLD LOFT AU18-ALPI-723 0 0000-00-00 00:00:00.000 0.000 00:00:00
PRAIRIE GOLD LOFT AU18-FH-8161 0 0000-00-00 00:00:00.000 0.000 00:00:00
PRAIRIE GOLD LOFT AU18-FLYI-8251 0 0000-00-00 00:00:00.000 0.000 00:00:00
PRAIRIE GOLD LOFT AU18-PIGE-8473 0 0000-00-00 00:00:00.000 0.000 00:00:00
PRAIRIE GOLD LOFT AU19-FH-9066 0 0000-00-00 00:00:00.000 0.000 00:00:00
PRAIRIE GOLD LOFT AU19-FH-9751 0 0000-00-00 00:00:00.000 0.000 00:00:00
PRAIRIE GOLD LOFT AU20-FH-20039 0 0000-00-00 00:00:00.000 0.000 00:00:00
PRAIRIE GOLD LOFT AU20-FH-20898 0 0000-00-00 00:00:00.000 0.000 00:00:00
PRAIRIE GOLD LOFT AU20-FH-20938 0 0000-00-00 00:00:00.000 0.000 00:00:00
PRAIRIE GOLD LOFT AU21-ARPU-36824 0 0000-00-00 00:00:00.000 0.000 00:00:00
PRAIRIE GOLD LOFT AU21-ARPU-70017 0 0000-00-00 00:00:00.000 0.000 00:00:00
PRAIRIE GOLD LOFT AU21-ARPU-7007 0 0000-00-00 00:00:00.000 0.000 00:00:00
PRAIRIE GOLD LOFT AU21-FH-21005 0 0000-00-00 00:00:00.000 0.000 00:00:00
PRAIRIE GOLD LOFT AU21-FH-21114 0 0000-00-00 00:00:00.000 0.000 00:00:00
PRAIRIE GOLD LOFT AU21-NOME-12 0 0000-00-00 00:00:00.000 0.000 00:00:00